May, Idaho
Current Conditions -  °F | °C
As of 1:37 PM on Thursday 29 Jan 2015 (Local Time) from KLLJ Reporting Station
Overcast Overcast  
Wind Chill: 31°   Ceiling: 1400
Heat Index: 31°   Visibility: 10mi
Dew Point: 25°   Wind: 0mph
Humidity: 79%   Direction: NA
Pressure: 30.39"   Gusts: NA
Location:  44.6°N, 113.91°W
Report Text: KLLJ 292037Z AUTO 00000KT 10SM OVC014 M01/M04 A3039 RMK AO2 T10061039
Loading
Personal Weather Stations






























Interactive Weather Map New forecast layout! Learn more

10-Day Weather Forecast

Advertisements
Track Severe Weather on mobile